Time;durP1;ratioP1;P1;durP2;ratioP2;P2;SDS_P1;SDS_P2;PMS_P1;PMS_P2;Temp;Humidity;BMP_temperature;BMP_pressure;BME280_temperature;BME280_humidity;BME280_pressure;Samples;Min_cycle;Max_cycle;Signal;HPM_P1;HPM_P2
2022/06/07 00:00:34;;;;;;;4.90;3.38;;;;;;;;;;4818755;29;20093;-80
2022/06/07 00:03:02;;;;;;;3.72;3.28;;;;;;;;;;4817405;29;20053;-80
2022/06/07 00:05:29;;;;;;;3.50;3.13;;;;;;;;;;4820007;29;20054;-80
2022/06/07 00:07:56;;;;;;;4.25;3.28;;;;;;;;;;4822146;29;20054;-80
2022/06/07 00:10:24;;;;;;;4.03;3.00;;;;;;;;;;4821433;29;20457;-80
2022/06/07 00:12:52;;;;;;;3.35;3.13;;;;;;;;;;4802950;29;20127;-80
2022/06/07 00:15:21;;;;;;;3.63;3.17;;;;;;;;;;4787732;29;20059;-80
2022/06/07 00:17:48;;;;;;;3.22;3.03;;;;;;;;;;4804641;29;20074;-80
2022/06/07 00:20:16;;;;;;;4.95;3.00;;;;;;;;;;4814655;29;20066;-80
2022/06/07 00:22:43;;;;;;;5.05;3.50;;;;;;;;;;4808135;29;20089;-80
2022/06/07 00:25:13;;;;;;;5.80;3.33;;;;;;;;;;4803584;29;20055;-80
2022/06/07 00:27:40;;;;;;;3.80;3.50;;;;;;;;;;4805858;29;20058;-80
2022/06/07 00:30:09;;;;;;;3.20;3.00;;;;;;;;;;4803637;29;20481;-80
2022/06/07 00:32:36;;;;;;;3.53;3.15;;;;;;;;;;4784736;29;20543;-80
2022/06/07 00:35:04;;;;;;;4.35;3.00;;;;;;;;;;4785836;29;20082;-80
2022/06/07 00:37:32;;;;;;;3.55;3.25;;;;;;;;;;4784004;29;20505;-80
2022/06/07 00:39:59;;;;;;;3.78;3.45;;;;;;;;;;4783396;30;20047;-80
2022/06/07 00:42:26;;;;;;;4.00;3.03;;;;;;;;;;4783469;30;20047;-80
2022/06/07 00:44:54;;;;;;;4.32;2.90;;;;;;;;;;4767722;30;20062;-80
2022/06/07 00:47:23;;;;;;;5.00;3.65;;;;;;;;;;4781106;29;20048;-80
2022/06/07 00:49:53;;;;;;;3.65;3.17;;;;;;;;;;4798036;29;20503;-80
2022/06/07 00:52:25;;;;;;;3.60;3.30;;;;;;;;;;4786121;29;20436;-80
2022/06/07 00:54:55;;;;;;;5.28;3.60;;;;;;;;;;4786796;29;20139;-79
2022/06/07 00:57:31;;;;;;;3.10;2.90;;;;;;;;;;4811141;29;20115;-79
2022/06/07 01:00:03;;;;;;;8.50;3.40;;;;;;;;;;4780935;29;20123;-79
2022/06/07 01:02:32;;;;;;;4.65;3.45;;;;;;;;;;4802206;29;20066;-79
2022/06/07 01:05:01;;;;;;;3.33;2.88;;;;;;;;;;4802174;29;20051;-80
2022/06/07 01:13:03;;;;;;;3.42;3.15;;;;;;;;;;4785887;30;20118;-79
2022/06/07 01:15:31;;;;;;;3.70;3.17;;;;;;;;;;4784127;30;20058;-78
2022/06/07 01:18:02;;;;;;;3.35;3.15;;;;;;;;;;4783138;29;20416;-80
2022/06/07 01:20:32;;;;;;;3.15;2.85;;;;;;;;;;4783390;30;20428;-79
2022/06/07 01:22:59;;;;;;;3.10;2.90;;;;;;;;;;4782455;30;20051;-80
2022/06/07 01:25:27;;;;;;;3.65;3.17;;;;;;;;;;4783594;30;20047;-79
2022/06/07 01:27:58;;;;;;;3.63;3.30;;;;;;;;;;4778372;29;20058;-79
2022/06/07 01:30:26;;;;;;;4.63;3.10;;;;;;;;;;4814567;29;20050;-80
2022/06/07 01:32:53;;;;;;;3.53;2.90;;;;;;;;;;4786843;29;20047;-80
2022/06/07 01:35:21;;;;;;;6.30;2.92;;;;;;;;;;4782081;30;20051;-80
2022/06/07 01:37:48;;;;;;;3.50;2.97;;;;;;;;;;4834900;24;20153;-77
2022/06/07 01:43:03;;;;;;;3.78;2.78;;;;;;;;;;4821272;29;20173;-76
2022/06/07 01:45:30;;;;;;;4.38;3.13;;;;;;;;;;4837440;29;20042;-77
2022/06/07 01:47:58;;;;;;;4.88;3.08;;;;;;;;;;4836678;29;20077;-77
2022/06/07 01:50:25;;;;;;;3.58;2.97;;;;;;;;;;4823625;29;20062;-76
2022/06/07 01:52:53;;;;;;;5.07;3.03;;;;;;;;;;4841051;29;20046;-77
2022/06/07 01:55:26;;;;;;;3.80;3.40;;;;;;;;;;4841273;29;20038;-76
2022/06/07 01:58:03;;;;;;;3.58;2.88;;;;;;;;;;4823747;29;20049;-76
2022/06/07 02:00:31;;;;;;;3.55;3.20;;;;;;;;;;4825204;29;20053;-76
2022/06/07 02:02:59;;;;;;;3.42;3.22;;;;;;;;;;4841814;29;20066;-77
2022/06/07 02:05:27;;;;;;;5.03;3.05;;;;;;;;;;4823568;29;20103;-77
2022/06/07 02:07:58;;;;;;;3.75;3.15;;;;;;;;;;4823691;29;20125;-76
2022/06/07 02:10:30;;;;;;;7.30;3.35;;;;;;;;;;4824090;29;20062;-77
2022/06/07 02:13:04;;;;;;;5.13;3.20;;;;;;;;;;4823925;29;20042;-76
2022/06/07 02:15:31;;;;;;;4.35;3.22;;;;;;;;;;4821777;29;20464;-77
2022/06/07 02:17:58;;;;;;;3.80;3.50;;;;;;;;;;4823108;29;20056;-77
2022/06/07 02:20:54;;;;;;;3.20;2.90;;;;;;;;;;4812840;29;20146;-77
2022/06/07 02:23:21;;;;;;;3.40;3.17;;;;;;;;;;4807586;29;20491;-77
2022/06/07 02:25:50;;;;;;;3.20;3.00;;;;;;;;;;4808806;29;20070;-77
2022/06/07 02:28:19;;;;;;;3.80;3.50;;;;;;;;;;4822989;29;20042;-78
2022/06/07 02:30:47;;;;;;;4.00;3.70;;;;;;;;;;4809869;29;20081;-77
2022/06/07 02:33:14;;;;;;;5.85;3.80;;;;;;;;;;4826416;29;20332;-77
2022/06/07 02:35:43;;;;;;;4.03;3.63;;;;;;;;;;4833449;29;20097;-78
2022/06/07 02:38:10;;;;;;;4.20;3.83;;;;;;;;;;4845095;29;20046;-78
2022/06/07 02:40:41;;;;;;;4.15;3.83;;;;;;;;;;4844474;29;20075;-78
2022/06/07 02:43:08;;;;;;;6.32;3.88;;;;;;;;;;4848139;29;20093;-77
2022/06/07 02:45:36;;;;;;;6.68;4.45;;;;;;;;;;4831090;29;20038;-78
2022/06/07 02:48:04;;;;;;;4.70;4.00;;;;;;;;;;4831471;29;20487;-77
2022/06/07 02:50:32;;;;;;;7.35;3.38;;;;;;;;;;4832290;29;20050;-78
2022/06/07 02:53:00;;;;;;;4.05;3.65;;;;;;;;;;4817158;29;20543;-78
2022/06/07 02:55:31;;;;;;;6.15;3.85;;;;;;;;;;4832768;29;20041;-78
2022/06/07 02:58:05;;;;;;;4.47;3.70;;;;;;;;;;4849684;29;20054;-77
2022/06/07 03:00:34;;;;;;;4.53;4.05;;;;;;;;;;4832681;29;20054;-78
2022/06/07 03:03:02;;;;;;;5.35;4.03;;;;;;;;;;4833455;29;20046;-78
2022/06/07 03:05:34;;;;;;;10.73;4.40;;;;;;;;;;4829599;29;20063;-78
2022/06/07 03:08:04;;;;;;;6.35;4.90;;;;;;;;;;4830030;29;20129;-77
2022/06/07 03:10:32;;;;;;;6.35;4.38;;;;;;;;;;4799970;29;20133;-78
2022/06/07 03:13:01;;;;;;;4.85;4.55;;;;;;;;;;4813411;29;20078;-77
2022/06/07 03:15:28;;;;;;;6.00;5.00;;;;;;;;;;4833037;29;20052;-78
2022/06/07 03:17:58;;;;;;;6.05;5.55;;;;;;;;;;4815166;29;20118;-78
2022/06/07 03:20:33;;;;;;;7.07;6.38;;;;;;;;;;4828771;29;20042;-77
2022/06/07 03:23:01;;;;;;;8.20;6.50;;;;;;;;;;4831737;29;20042;-77
2022/06/07 03:25:29;;;;;;;6.78;6.18;;;;;;;;;;4813401;29;20038;-78
2022/06/07 03:28:04;;;;;;;12.13;6.97;;;;;;;;;;4829036;29;20125;-78
2022/06/07 03:30:32;;;;;;;8.23;7.47;;;;;;;;;;4829338;29;20068;-77
2022/06/07 03:33:01;;;;;;;8.73;7.20;;;;;;;;;;4828262;29;20042;-78
2022/06/07 03:35:31;;;;;;;8.88;6.25;;;;;;;;;;4813774;29;20058;-78
2022/06/07 03:38:00;;;;;;;9.85;6.88;;;;;;;;;;4828839;29;20050;-77
2022/06/07 03:40:44;;;;;;;10.40;6.70;;;;;;;;;;4816188;29;20393;-78
2022/06/07 03:43:23;;;;;;;8.20;6.50;;;;;;;;;;4847124;29;20081;-78
2022/06/07 03:45:51;;;;;;;6.65;5.95;;;;;;;;;;4830189;29;20053;-78
2022/06/07 03:48:18;;;;;;;9.38;6.40;;;;;;;;;;4829455;29;20045;-77
2022/06/07 03:50:48;;;;;;;8.38;6.97;;;;;;;;;;4829042;29;20054;-78
2022/06/07 03:53:18;;;;;;;9.40;7.20;;;;;;;;;;4829014;29;20105;-78
2022/06/07 03:55:47;;;;;;;8.25;6.85;;;;;;;;;;4845418;29;20054;-79
2022/06/07 03:58:18;;;;;;;7.63;6.72;;;;;;;;;;4830005;29;20054;-79
2022/06/07 04:00:46;;;;;;;7.78;7.07;;;;;;;;;;4830907;29;20075;-78
2022/06/07 04:03:13;;;;;;;6.63;5.90;;;;;;;;;;4829636;29;20235;-77
2022/06/07 04:05:42;;;;;;;7.57;6.10;;;;;;;;;;4830222;29;20073;-79
2022/06/07 04:08:12;;;;;;;8.00;7.17;;;;;;;;;;4829572;29;20555;-78
2022/06/07 04:10:52;;;;;;;9.68;5.65;;;;;;;;;;4829892;29;20042;-77
2022/06/07 04:13:25;;;;;;;9.80;6.90;;;;;;;;;;4831209;29;20383;-77
2022/06/07 04:15:56;;;;;;;18.70;5.82;;;;;;;;;;4830738;29;20054;-77
2022/06/07 04:18:24;;;;;;;7.65;6.55;;;;;;;;;;4826975;29;20045;-77
2022/06/07 04:20:58;;;;;;;7.70;6.30;;;;;;;;;;4828089;29;20042;-76
2022/06/07 04:23:30;;;;;;;6.55;5.15;;;;;;;;;;4828245;29;20413;-78
2022/06/07 04:26:04;;;;;;;8.23;7.07;;;;;;;;;;4826745;29;20106;-78
2022/06/07 04:28:36;;;;;;;7.45;5.53;;;;;;;;;;4827726;29;20166;-77
2022/06/07 04:31:09;;;;;;;5.93;5.40;;;;;;;;;;4828691;29;20050;-78
2022/06/07 04:33:37;;;;;;;7.30;5.18;;;;;;;;;;4828124;29;20066;-78
2022/06/07 04:36:10;;;;;;;6.68;5.32;;;;;;;;;;4827581;29;20046;-78
2022/06/07 04:38:38;;;;;;;6.90;5.45;;;;;;;;;;4842376;29;20422;-78
2022/06/07 04:41:13;;;;;;;7.03;5.50;;;;;;;;;;4825640;29;20361;-78
2022/06/07 04:43:51;;;;;;;6.93;5.55;;;;;;;;;;4825490;29;20052;-78
2022/06/07 04:46:21;;;;;;;6.28;4.85;;;;;;;;;;4825414;29;20133;-77
2022/06/07 04:48:52;;;;;;;5.93;4.85;;;;;;;;;;4823379;29;20038;-77
2022/06/07 04:51:24;;;;;;;5.30;4.80;;;;;;;;;;4826019;29;20050;-79
2022/06/07 04:54:01;;;;;;;6.97;4.80;;;;;;;;;;4826778;29;20038;-78
2022/06/07 04:56:34;;;;;;;5.53;4.40;;;;;;;;;;4824039;29;20404;-78
2022/06/07 04:59:03;;;;;;;4.65;4.00;;;;;;;;;;4826931;29;20046;-78
2022/06/07 05:01:31;;;;;;;6.43;4.53;;;;;;;;;;4826923;29;20053;-78
2022/06/07 05:04:04;;;;;;;8.48;4.18;;;;;;;;;;4825744;29;20492;-78
2022/06/07 05:06:35;;;;;;;4.00;3.70;;;;;;;;;;4825165;29;20069;-78
2022/06/07 05:09:27;;;;;;;7.03;4.75;;;;;;;;;;4827451;29;20046;-79
2022/06/07 05:12:01;;;;;;;5.82;4.30;;;;;;;;;;4826651;29;20041;-79
2022/06/07 05:14:33;;;;;;;4.97;4.00;;;;;;;;;;4829920;29;20084;-79
2022/06/07 05:17:00;;;;;;;6.18;3.95;;;;;;;;;;4826255;29;20407;-79
2022/06/07 05:19:33;;;;;;;4.97;4.00;;;;;;;;;;4816067;29;20049;-79
2022/06/07 05:22:09;;;;;;;4.13;3.65;;;;;;;;;;4838353;29;20109;-80
2022/06/07 05:24:44;;;;;;;5.90;4.30;;;;;;;;;;4836265;29;20057;-77
2022/06/07 05:27:16;;;;;;;4.05;3.75;;;;;;;;;;4848128;29;20091;-77
2022/06/07 05:29:47;;;;;;;5.32;4.60;;;;;;;;;;4841375;29;20056;-77
2022/06/07 05:32:22;;;;;;;6.13;3.97;;;;;;;;;;4841024;29;20050;-79
2022/06/07 05:34:52;;;;;;;3.50;3.20;;;;;;;;;;4814716;29;20054;-79
2022/06/07 05:37:27;;;;;;;4.40;4.00;;;;;;;;;;4830064;29;20093;-79
2022/06/07 05:40:22;;;;;;;5.25;4.10;;;;;;;;;;4830400;29;20063;-79
2022/06/07 05:42:50;;;;;;;3.60;2.90;;;;;;;;;;4817027;29;20067;-80
2022/06/07 05:45:28;;;;;;;7.38;3.78;;;;;;;;;;4818277;29;20080;-79
2022/06/07 05:47:58;;;;;;;3.75;3.45;;;;;;;;;;4835638;29;20116;-79
2022/06/07 05:50:30;;;;;;;3.10;2.90;;;;;;;;;;4830677;29;20056;-79
2022/06/07 05:53:10;;;;;;;4.32;3.78;;;;;;;;;;4831078;29;20545;-79
2022/06/07 05:55:41;;;;;;;3.72;3.40;;;;;;;;;;4840467;29;20685;-79
2022/06/07 05:58:09;;;;;;;3.90;3.60;;;;;;;;;;4835246;29;20050;-79
2022/06/07 06:00:43;;;;;;;3.88;3.28;;;;;;;;;;4842262;29;20042;-79
2022/06/07 06:03:23;;;;;;;4.70;3.65;;;;;;;;;;4828252;29;20057;-79
2022/06/07 06:06:06;;;;;;;2.63;2.42;;;;;;;;;;4827288;29;20042;-79
2022/06/07 06:11:41;;;;;;;4.18;2.83;;;;;;;;;;4840801;29;20060;-79
2022/06/07 06:14:28;;;;;;;8.10;2.97;;;;;;;;;;4838073;29;20053;-78
2022/06/07 06:17:06;;;;;;;3.60;3.30;;;;;;;;;;4826740;29;20074;-79
2022/06/07 06:19:47;;;;;;;3.70;3.30;;;;;;;;;;4812281;29;20085;-79
2022/06/07 06:22:17;;;;;;;5.43;3.70;;;;;;;;;;4834660;29;20171;-80
2022/06/07 06:24:52;;;;;;;5.43;3.45;;;;;;;;;;4839748;29;20404;-79
2022/06/07 06:27:22;;;;;;;5.88;4.43;;;;;;;;;;4810304;29;20053;-80
2022/06/07 06:29:52;;;;;;;5.97;4.00;;;;;;;;;;4827889;29;20049;-80
2022/06/07 06:32:20;;;;;;;3.45;3.20;;;;;;;;;;4834487;29;20052;-81
2022/06/07 06:34:50;;;;;;;4.28;3.88;;;;;;;;;;4813938;29;20085;-81
2022/06/07 06:37:20;;;;;;;7.20;6.43;;;;;;;;;;4827242;29;20042;-81
2022/06/07 06:39:50;;;;;;;6.10;4.85;;;;;;;;;;4832337;29;20488;-81
2022/06/07 06:42:18;;;;;;;3.78;3.47;;;;;;;;;;4830791;29;20041;-81
2022/06/07 06:45:12;;;;;;;7.72;4.35;;;;;;;;;;4827856;29;20053;-81
2022/06/07 06:47:44;;;;;;;7.88;4.00;;;;;;;;;;4846156;29;20061;-82
2022/06/07 06:50:13;;;;;;;5.68;5.18;;;;;;;;;;4834011;29;20392;-81
2022/06/07 06:52:41;;;;;;;7.70;4.20;;;;;;;;;;4838339;29;20081;-81
2022/06/07 06:55:09;;;;;;;4.60;4.20;;;;;;;;;;4845939;29;20122;-81
2022/06/07 06:57:40;;;;;;;5.82;4.10;;;;;;;;;;4825336;29;20042;-81
2022/06/07 07:00:19;;;;;;;5.00;3.30;;;;;;;;;;4810396;29;20118;-81
2022/06/07 07:02:48;;;;;;;6.57;3.03;;;;;;;;;;4823085;29;20046;-82
2022/06/07 07:05:21;;;;;;;3.45;3.15;;;;;;;;;;4837393;29;20058;-82
2022/06/07 07:07:57;;;;;;;11.17;2.97;;;;;;;;;;4840566;29;20058;-82
2022/06/07 07:10:27;;;;;;;5.43;3.60;;;;;;;;;;4840831;29;20354;-82
2022/06/07 07:12:55;;;;;;;3.78;3.47;;;;;;;;;;4869852;29;20068;-81
2022/06/07 07:15:33;;;;;;;6.80;4.45;;;;;;;;;;4830469;29;20042;-82
2022/06/07 07:18:13;;;;;;;6.35;4.30;;;;;;;;;;4829959;29;20060;-82
2022/06/07 07:20:47;;;;;;;6.45;4.15;;;;;;;;;;4828010;29;20278;-82
2022/06/07 07:23:16;;;;;;;7.13;4.68;;;;;;;;;;4839423;29;20052;-82
2022/06/07 07:25:44;;;;;;;5.00;4.50;;;;;;;;;;4847978;29;20054;-82
2022/06/07 07:28:18;;;;;;;16.55;4.05;;;;;;;;;;4826695;29;20483;-82
2022/06/07 07:30:50;;;;;;;15.82;4.28;;;;;;;;;;4824167;29;20057;-80
2022/06/07 07:33:18;;;;;;;8.50;3.42;;;;;;;;;;4833147;29;20037;-80
2022/06/07 07:35:45;;;;;;;20.88;4.25;;;;;;;;;;4812929;29;20060;-80
2022/06/07 07:41:28;;;;;;;6.32;3.33;;;;;;;;;;4863978;29;20049;-78
2022/06/07 07:43:56;;;;;;;4.68;4.28;;;;;;;;;;4817727;29;20057;-79
2022/06/07 07:46:26;;;;;;;23.42;3.63;;;;;;;;;;4820953;29;20050;-89
2022/06/07 07:48:54;;;;;;;5.35;3.65;;;;;;;;;;4833348;29;20055;-79
2022/06/07 07:51:27;;;;;;;5.00;4.28;;;;;;;;;;4830457;29;20052;-79
2022/06/07 07:53:56;;;;;;;6.13;4.60;;;;;;;;;;4831149;29;20050;-79
2022/06/07 07:56:25;;;;;;;3.85;3.55;;;;;;;;;;4829195;29;20140;-79
2022/06/07 07:58:54;;;;;;;6.95;4.10;;;;;;;;;;4833345;29;20051;-78
2022/06/07 08:01:23;;;;;;;5.50;4.03;;;;;;;;;;4841923;29;20057;-78
2022/06/07 08:03:52;;;;;;;8.60;3.75;;;;;;;;;;4838656;29;20061;-79
2022/06/07 08:06:25;;;;;;;5.90;4.57;;;;;;;;;;4816720;29;20058;-79
2022/06/07 08:08:54;;;;;;;6.95;4.60;;;;;;;;;;4846447;29;20088;-79
2022/06/07 08:11:28;;;;;;;3.90;3.50;;;;;;;;;;4830051;29;20139;-78
2022/06/07 08:13:56;;;;;;;4.70;3.67;;;;;;;;;;4825531;29;20056;-79
2022/06/07 08:16:24;;;;;;;10.90;3.88;;;;;;;;;;4805524;29;20049;-77
2022/06/07 08:18:51;;;;;;;4.20;3.72;;;;;;;;;;4857981;29;20049;-78
2022/06/07 08:21:24;;;;;;;4.43;4.13;;;;;;;;;;4814766;29;20050;-77
2022/06/07 08:23:54;;;;;;;7.95;2.78;;;;;;;;;;4830939;29;20046;-79
2022/06/07 08:26:23;;;;;;;6.18;3.60;;;;;;;;;;4826515;29;20057;-78
2022/06/07 08:28:50;;;;;;;4.93;3.28;;;;;;;;;;4814767;29;20423;-77
2022/06/07 08:31:20;;;;;;;6.50;2.80;;;;;;;;;;4814993;29;20124;-78
2022/06/07 08:39:21;;;;;;;12.07;4.60;;;;;;;;;;4837892;29;20057;-78
2022/06/07 08:41:58;;;;;;;5.47;4.97;;;;;;;;;;4809901;29;20054;-79
2022/06/07 08:44:33;;;;;;;14.02;4.60;;;;;;;;;;4824046;29;20049;-77
2022/06/07 08:47:05;;;;;;;6.35;5.70;;;;;;;;;;4839588;29;20064;-78
2022/06/07 08:49:32;;;;;;;6.07;4.95;;;;;;;;;;4825661;29;20054;-78
2022/06/07 08:52:11;;;;;;;5.35;4.75;;;;;;;;;;4843584;29;20053;-78
2022/06/07 08:54:40;;;;;;;8.73;4.70;;;;;;;;;;4833375;29;20053;-77
2022/06/07 08:57:16;;;;;;;17.35;5.22;;;;;;;;;;4832575;29;20057;-79
2022/06/07 08:59:46;;;;;;;4.55;3.90;;;;;;;;;;4795008;29;20056;-78
2022/06/07 09:02:33;;;;;;;5.93;4.20;;;;;;;;;;4816997;29;20105;-80
2022/06/07 09:05:01;;;;;;;6.32;5.50;;;;;;;;;;4822201;29;20053;-78
2022/06/07 09:07:29;;;;;;;7.13;4.90;;;;;;;;;;4806545;29;20071;-78
2022/06/07 09:12:57;;;;;;;5.68;4.90;;;;;;;;;;4818660;29;20450;-78
2022/06/07 09:15:25;;;;;;;9.10;4.50;;;;;;;;;;4810196;29;20053;-77
2022/06/07 09:17:57;;;;;;;6.00;4.13;;;;;;;;;;4815840;29;20068;-78
2022/06/07 09:20:24;;;;;;;9.85;6.35;;;;;;;;;;4820058;29;20054;-78
2022/06/07 09:22:52;;;;;;;6.22;4.97;;;;;;;;;;4813007;29;20042;-78
2022/06/07 09:25:22;;;;;;;12.93;5.97;;;;;;;;;;4822397;29;20056;-77
2022/06/07 09:27:50;;;;;;;9.75;5.90;;;;;;;;;;4812070;29;20451;-79
2022/06/07 09:30:28;;;;;;;7.63;5.07;;;;;;;;;;4815095;29;20086;-79
2022/06/07 09:32:56;;;;;;;5.18;4.20;;;;;;;;;;4799933;29;20124;-82
2022/06/07 09:35:41;;;;;;;9.75;5.80;;;;;;;;;;4798237;29;20068;-79
2022/06/07 09:38:17;;;;;;;8.50;5.22;;;;;;;;;;4804109;29;20537;-79
2022/06/07 09:40:57;;;;;;;7.63;5.60;;;;;;;;;;4826348;29;20064;-79
2022/06/07 09:43:29;;;;;;;6.53;5.28;;;;;;;;;;4825227;29;20060;-79
2022/06/07 09:45:57;;;;;;;5.85;5.15;;;;;;;;;;4820738;29;20051;-80
2022/06/07 09:48:27;;;;;;;6.30;4.78;;;;;;;;;;4852107;29;20064;-79
2022/06/07 09:51:00;;;;;;;6.50;5.35;;;;;;;;;;4810404;29;20058;-76
2022/06/07 09:53:43;;;;;;;6.63;5.38;;;;;;;;;;4792384;29;20142;-77
2022/06/07 09:56:24;;;;;;;11.00;6.05;;;;;;;;;;4816162;29;20098;-79
2022/06/07 09:58:55;;;;;;;6.53;5.30;;;;;;;;;;4796835;29;20126;-78
2022/06/07 10:01:23;;;;;;;9.02;5.70;;;;;;;;;;4837307;29;20036;-79
2022/06/07 10:03:53;;;;;;;6.70;5.38;;;;;;;;;;4816974;29;20136;-79
2022/06/07 10:06:27;;;;;;;6.05;5.45;;;;;;;;;;4804388;29;20061;-79
2022/06/07 10:09:06;;;;;;;6.20;4.68;;;;;;;;;;4820311;29;20050;-79
2022/06/07 10:11:34;;;;;;;8.27;5.78;;;;;;;;;;4818107;29;20045;-78
2022/06/07 10:14:14;;;;;;;4.82;4.00;;;;;;;;;;4812582;29;20061;-79
2022/06/07 10:16:51;;;;;;;4.20;3.90;;;;;;;;;;4806909;29;20085;-79
2022/06/07 10:19:51;;;;;;;6.93;5.28;;;;;;;;;;4816821;29;20044;-79
2022/06/07 10:22:27;;;;;;;7.15;5.50;;;;;;;;;;4772987;29;20049;-78
2022/06/07 10:25:11;;;;;;;5.32;3.80;;;;;;;;;;4828159;29;20057;-77
2022/06/07 10:27:43;;;;;;;8.38;5.15;;;;;;;;;;4876960;24;20059;-79
2022/06/07 10:30:20;;;;;;;6.53;5.75;;;;;;;;;;4807428;29;20049;-79
2022/06/07 10:32:56;;;;;;;5.60;5.00;;;;;;;;;;4837450;29;20424;-79
2022/06/07 10:35:39;;;;;;;4.82;4.35;;;;;;;;;;4822810;29;20128;-78
2022/06/07 10:38:07;;;;;;;4.60;4.20;;;;;;;;;;4823463;29;20521;-78
2022/06/07 10:40:38;;;;;;;4.45;4.05;;;;;;;;;;4816077;29;20509;-85
2022/06/07 10:43:11;;;;;;;4.78;3.90;;;;;;;;;;4808067;29;20402;-79
2022/06/07 10:45:40;;;;;;;5.95;4.68;;;;;;;;;;4812547;29;20043;-77
2022/06/07 10:48:24;;;;;;;4.15;3.33;;;;;;;;;;4812958;29;20497;-78
2022/06/07 10:54:06;;;;;;;6.35;4.55;;;;;;;;;;4777735;29;20058;-79
2022/06/07 10:56:36;;;;;;;8.65;3.88;;;;;;;;;;4802668;29;20054;-78
2022/06/07 10:59:16;;;;;;;7.40;5.43;;;;;;;;;;4815000;29;20059;-78
2022/06/07 11:01:53;;;;;;;5.65;4.65;;;;;;;;;;4802324;29;20588;-78
2022/06/07 11:10:25;;;;;;;8.77;5.22;;;;;;;;;;4786904;29;20055;-79
2022/06/07 11:13:10;;;;;;;15.48;11.32;;;;;;;;;;4805603;29;20533;-78
2022/06/07 11:15:41;;;;;;;9.52;6.45;;;;;;;;;;4812953;29;20109;-78
2022/06/07 11:18:24;;;;;;;5.10;4.60;;;;;;;;;;4777530;29;20050;-79
2022/06/07 11:21:04;;;;;;;5.18;4.68;;;;;;;;;;4786625;29;20049;-78
2022/06/07 11:23:36;;;;;;;6.60;4.85;;;;;;;;;;4803399;29;20059;-78
2022/06/07 11:26:22;;;;;;;5.18;4.68;;;;;;;;;;4808076;29;20120;-78
2022/06/07 11:28:53;;;;;;;7.35;5.00;;;;;;;;;;4785224;29;20046;-77
2022/06/07 11:31:36;;;;;;;6.15;4.32;;;;;;;;;;4792825;29;20517;-78
2022/06/07 11:34:13;;;;;;;6.18;4.20;;;;;;;;;;4795339;29;20120;-77
2022/06/07 11:36:41;;;;;;;7.55;4.78;;;;;;;;;;4799028;29;20043;-78
2022/06/07 11:39:22;;;;;;;7.28;5.93;;;;;;;;;;4800731;29;20540;-78
2022/06/07 11:41:56;;;;;;;5.32;4.70;;;;;;;;;;4808462;29;20055;-78
2022/06/07 11:44:36;;;;;;;4.50;4.10;;;;;;;;;;4776015;29;20070;-79
2022/06/07 11:47:11;;;;;;;4.47;4.07;;;;;;;;;;4790538;29;20070;-79
2022/06/07 11:49:42;;;;;;;5.25;4.18;;;;;;;;;;4787077;29;20141;-78
2022/06/07 11:52:13;;;;;;;5.30;4.53;;;;;;;;;;4787246;29;20054;-78
2022/06/07 11:54:48;;;;;;;6.57;3.05;;;;;;;;;;4806539;29;20054;-81
2022/06/07 11:57:38;;;;;;;4.13;3.25;;;;;;;;;;4806884;29;20047;-78
2022/06/07 12:00:22;;;;;;;9.43;5.18;;;;;;;;;;4813187;29;20059;-79
2022/06/07 12:03:01;;;;;;;6.82;4.22;;;;;;;;;;4810107;29;20107;-79
2022/06/07 12:05:45;;;;;;;9.50;6.80;;;;;;;;;;4801244;29;20050;-78
2022/06/07 12:08:30;;;;;;;6.03;4.57;;;;;;;;;;4783581;29;20070;-78
2022/06/07 12:11:20;;;;;;;4.45;3.58;;;;;;;;;;4801044;29;20511;-78
2022/06/07 12:13:59;;;;;;;11.93;4.35;;;;;;;;;;4816016;29;20129;-78
2022/06/07 12:16:33;;;;;;;9.80;8.05;;;;;;;;;;4799319;29;20114;-78
2022/06/07 12:19:08;;;;;;;7.70;5.32;;;;;;;;;;4816870;29;20050;-79
2022/06/07 12:21:44;;;;;;;6.65;6.05;;;;;;;;;;4803727;29;20051;-77
2022/06/07 12:24:18;;;;;;;7.32;6.72;;;;;;;;;;4802172;29;20054;-80
2022/06/07 12:26:47;;;;;;;9.50;7.78;;;;;;;;;;4802525;29;20057;-78
2022/06/07 12:29:20;;;;;;;8.43;7.55;;;;;;;;;;4798019;29;20116;-78
2022/06/07 12:31:55;;;;;;;10.13;8.75;;;;;;;;;;4807931;29;20058;-77
2022/06/07 12:34:24;;;;;;;13.52;7.82;;;;;;;;;;4802016;29;20057;-78
2022/06/07 12:37:10;;;;;;;10.88;8.40;;;;;;;;;;4800613;29;20054;-79
2022/06/07 12:39:49;;;;;;;9.43;8.02;;;;;;;;;;4803148;29;20049;-76
2022/06/07 12:42:18;;;;;;;7.68;6.90;;;;;;;;;;4800752;29;20054;-80
2022/06/07 12:44:53;;;;;;;13.75;8.88;;;;;;;;;;4816263;29;20107;-77
2022/06/07 12:47:47;;;;;;;9.05;8.25;;;;;;;;;;4815384;29;20066;-77
2022/06/07 12:50:26;;;;;;;8.80;7.50;;;;;;;;;;4780128;29;20080;-78
2022/06/07 12:52:56;;;;;;;7.30;6.60;;;;;;;;;;4783234;30;20059;-78
2022/06/07 12:55:28;;;;;;;11.93;8.80;;;;;;;;;;4786647;29;20494;-78
2022/06/07 12:58:03;;;;;;;10.35;9.07;;;;;;;;;;4805220;29;20056;-78
2022/06/07 13:00:41;;;;;;;11.18;7.80;;;;;;;;;;4802838;29;20409;-78
2022/06/07 13:03:28;;;;;;;6.45;5.75;;;;;;;;;;4808929;29;20375;-77
2022/06/07 13:05:59;;;;;;;6.00;5.50;;;;;;;;;;4800998;29;20050;-77
2022/06/07 13:08:33;;;;;;;7.03;6.43;;;;;;;;;;4793427;29;20057;-78
2022/06/07 13:11:03;;;;;;;7.43;6.45;;;;;;;;;;4804193;29;20046;-78
2022/06/07 13:13:33;;;;;;;8.27;6.28;;;;;;;;;;4795521;29;20054;-78
2022/06/07 13:16:13;;;;;;;8.85;7.10;;;;;;;;;;4794519;29;20138;-78
2022/06/07 13:18:43;;;;;;;8.50;6.93;;;;;;;;;;4796957;29;20062;-78
2022/06/07 13:21:19;;;;;;;5.93;5.45;;;;;;;;;;4787764;29;20051;-77
2022/06/07 13:23:51;;;;;;;10.27;8.98;;;;;;;;;;4800561;29;20055;-78
2022/06/07 13:26:29;;;;;;;9.55;7.90;;;;;;;;;;4785081;29;20047;-78
2022/06/07 13:29:24;;;;;;;10.80;8.70;;;;;;;;;;4797155;29;20430;-79
2022/06/07 13:31:51;;;;;;;7.95;7.15;;;;;;;;;;4763459;29;20074;-79
2022/06/07 13:34:34;;;;;;;9.75;7.85;;;;;;;;;;4815238;29;20082;-78
2022/06/07 13:37:10;;;;;;;11.30;8.80;;;;;;;;;;4808420;24;20108;-88
2022/06/07 13:39:40;;;;;;;9.90;8.90;;;;;;;;;;4839282;29;20415;-86
2022/06/07 13:42:12;;;;;;;11.45;8.57;;;;;;;;;;4805675;29;20058;-87
2022/06/07 13:44:47;;;;;;;10.98;9.07;;;;;;;;;;4808847;29;20061;-89
2022/06/07 13:47:31;;;;;;;10.70;9.52;;;;;;;;;;4808974;29;20463;-86
2022/06/07 13:53:26;;;;;;;8.18;7.18;;;;;;;;;;4863372;24;20125;-82
2022/06/07 13:56:14;;;;;;;7.20;6.50;;;;;;;;;;4806018;29;20077;-82
2022/06/07 13:58:47;;;;;;;8.00;6.80;;;;;;;;;;4806412;29;20113;-81
2022/06/07 14:01:14;;;;;;;;;;;;;;;;;;4849598;29;20070;-81
2022/06/07 14:03:47;;;;;;;6.47;5.72;;;;;;;;;;4833053;29;19935;-81
2022/06/07 14:06:20;;;;;;;7.13;6.55;;;;;;;;;;4836011;29;20062;-81
2022/06/07 14:08:48;;;;;;;7.22;6.10;;;;;;;;;;4832839;29;20107;-81
2022/06/07 14:11:15;;;;;;;8.77;8.00;;;;;;;;;;4842747;29;20056;-81
2022/06/07 14:13:43;;;;;;;8.98;8.13;;;;;;;;;;4850098;29;20065;-81
2022/06/07 14:16:16;;;;;;;9.93;8.35;;;;;;;;;;4842586;29;20073;-80
2022/06/07 14:18:45;;;;;;;8.52;7.57;;;;;;;;;;4856875;29;20049;-82
2022/06/07 14:21:13;;;;;;;7.47;6.90;;;;;;;;;;4831060;29;20045;-80
2022/06/07 14:23:40;;;;;;;7.80;7.03;;;;;;;;;;4856602;29;20060;-81
2022/06/07 14:26:10;;;;;;;12.85;8.20;;;;;;;;;;4855870;29;20051;-81
2022/06/07 14:28:38;;;;;;;9.00;8.20;;;;;;;;;;4870292;29;20073;-79
2022/06/07 14:31:12;;;;;;;7.60;6.90;;;;;;;;;;4850229;29;20050;-81
2022/06/07 14:33:40;;;;;;;8.50;7.72;;;;;;;;;;4861591;29;20491;-80
2022/06/07 14:36:07;;;;;;;7.82;6.65;;;;;;;;;;4848529;29;20076;-80
2022/06/07 14:38:35;;;;;;;9.55;8.52;;;;;;;;;;4849700;29;20045;-80
2022/06/07 14:41:02;;;;;;;8.32;7.47;;;;;;;;;;4842391;29;20061;-79
2022/06/07 14:43:34;;;;;;;8.00;7.30;;;;;;;;;;4853225;29;20045;-80
2022/06/07 14:46:04;;;;;;;6.97;6.25;;;;;;;;;;4845627;29;20092;-80
2022/06/07 14:48:40;;;;;;;8.30;7.22;;;;;;;;;;4867009;29;20048;-79
2022/06/07 14:51:29;;;;;;;8.93;7.15;;;;;;;;;;4868074;29;20050;-81
2022/06/07 14:53:58;;;;;;;7.82;7.03;;;;;;;;;;4844468;29;20105;-79
2022/06/07 14:56:28;;;;;;;7.63;6.93;;;;;;;;;;4817485;29;20124;-81
2022/06/07 14:58:55;;;;;;;9.35;8.13;;;;;;;;;;4846601;29;20106;-80
2022/06/07 15:01:26;;;;;;;8.65;7.25;;;;;;;;;;4860702;29;20173;-80
2022/06/07 15:03:54;;;;;;;7.10;6.50;;;;;;;;;;4838150;29;20149;-79
2022/06/07 15:06:28;;;;;;;9.20;7.63;;;;;;;;;;4834529;29;20304;-79
2022/06/07 15:08:55;;;;;;;7.43;6.78;;;;;;;;;;4863507;29;20110;-81
2022/06/07 15:11:28;;;;;;;6.97;6.38;;;;;;;;;;4863398;29;20541;-80
2022/06/07 15:13:56;;;;;;;7.55;6.40;;;;;;;;;;4849610;29;20050;-79
2022/06/07 15:16:24;;;;;;;5.20;4.70;;;;;;;;;;4848912;29;20112;-81
2022/06/07 15:18:58;;;;;;;6.35;5.13;;;;;;;;;;4837369;29;20082;-79
2022/06/07 15:21:28;;;;;;;4.43;4.07;;;;;;;;;;4862946;29;20049;-80
2022/06/07 15:23:56;;;;;;;5.03;4.53;;;;;;;;;;4862440;29;20498;-80
2022/06/07 15:26:25;;;;;;;5.25;4.75;;;;;;;;;;4833750;29;20057;-79
2022/06/07 15:28:53;;;;;;;5.50;4.68;;;;;;;;;;4852992;29;20105;-78
2022/06/07 15:31:24;;;;;;;7.15;4.80;;;;;;;;;;4858229;29;20088;-79
2022/06/07 15:33:56;;;;;;;6.50;4.53;;;;;;;;;;4859092;29;20050;-81
2022/06/07 15:36:26;;;;;;;4.30;3.95;;;;;;;;;;4833339;29;20073;-78
2022/06/07 15:38:54;;;;;;;4.13;3.80;;;;;;;;;;4870304;29;20075;-80
2022/06/07 15:44:08;;;;;;;4.40;4.00;;;;;;;;;;4847501;29;20050;-78
2022/06/07 15:46:39;;;;;;;4.20;3.90;;;;;;;;;;4824901;29;20057;-78
2022/06/07 15:49:08;;;;;;;3.72;3.42;;;;;;;;;;4864897;29;20045;-79
2022/06/07 15:51:36;;;;;;;6.07;3.40;;;;;;;;;;4845351;29;20060;-79